Terminal Aerodrome Forecast
Issued by NWS

Home | Current Version | Previous Version | Text Only | Print | Product List | Glossary On
Versions: 1 2 3 4 5 6 7 8 9 10 11 12 13 14 15 16 17 18 19 20 21 22 23 24 25 26 27 28 29 30
000
FTUS44 KLIX 292331
TAFHUM
TAF
KHUM 292331Z 3000/3024 17007KT P6SM BKN080
     FM300300 14004KT P6SM SCT250
     FM301300 00000KT P6SM SCT020 BKN080
     FM301700 15010KT P6SM VCTS SCT030CB=

USA.gov is the U.S. government's official web portal to all federal, state and local government web resources and services.